sensor_id;sensor_type;location;lat;lon;timestamp;P1;durP1;ratioP1;P2;durP2;ratioP2
2858;SDS011;1437;53.250;10.406;2022-11-18T00:01:32;12.90;;;7.10;;
2858;SDS011;1437;53.250;10.406;2022-11-18T00:04:00;16.60;;;8.43;;
2858;SDS011;1437;53.250;10.406;2022-11-18T00:06:29;16.17;;;9.17;;
2858;SDS011;1437;53.250;10.406;2022-11-18T00:08:59;14.87;;;8.30;;
2858;SDS011;1437;53.250;10.406;2022-11-18T00:11:27;14.00;;;8.33;;
2858;SDS011;1437;53.250;10.406;2022-11-18T00:14:13;15.70;;;8.80;;
2858;SDS011;1437;53.250;10.406;2022-11-18T00:16:48;16.40;;;9.37;;
2858;SDS011;1437;53.250;10.406;2022-11-18T00:19:16;15.93;;;8.43;;
2858;SDS011;1437;53.250;10.406;2022-11-18T00:21:44;12.37;;;7.90;;
2858;SDS011;1437;53.250;10.406;2022-11-18T00:24:13;20.27;;;9.90;;
2858;SDS011;1437;53.250;10.406;2022-11-18T00:26:41;14.80;;;9.00;;
2858;SDS011;1437;53.250;10.406;2022-11-18T00:29:12;16.63;;;8.97;;
2858;SDS011;1437;53.250;10.406;2022-11-18T00:31:41;13.90;;;8.10;;
2858;SDS011;1437;53.250;10.406;2022-11-18T00:34:09;19.63;;;9.70;;
2858;SDS011;1437;53.250;10.406;2022-11-18T00:36:37;17.23;;;9.87;;
2858;SDS011;1437;53.250;10.406;2022-11-18T00:39:05;14.73;;;9.60;;
2858;SDS011;1437;53.250;10.406;2022-11-18T00:41:35;16.17;;;10.07;;
2858;SDS011;1437;53.250;10.406;2022-11-18T00:44:20;17.37;;;10.60;;
2858;SDS011;1437;53.250;10.406;2022-11-18T00:46:48;18.37;;;10.60;;
2858;SDS011;1437;53.250;10.406;2022-11-18T00:49:16;21.37;;;11.70;;
2858;SDS011;1437;53.250;10.406;2022-11-18T00:51:43;16.30;;;10.03;;
2858;SDS011;1437;53.250;10.406;2022-11-18T00:54:14;16.10;;;8.93;;
2858;SDS011;1437;53.250;10.406;2022-11-18T00:56:44;13.73;;;7.57;;
2858;SDS011;1437;53.250;10.406;2022-11-18T00:59:15;19.10;;;10.30;;
2858;SDS011;1437;53.250;10.406;2022-11-18T01:01:43;16.37;;;10.90;;
2858;SDS011;1437;53.250;10.406;2022-11-18T01:04:10;18.60;;;9.43;;
2858;SDS011;1437;53.250;10.406;2022-11-18T01:06:39;16.47;;;9.00;;
2858;SDS011;1437;53.250;10.406;2022-11-18T01:09:07;19.23;;;10.73;;
2858;SDS011;1437;53.250;10.406;2022-11-18T01:11:35;16.03;;;8.83;;
2858;SDS011;1437;53.250;10.406;2022-11-18T01:14:21;16.97;;;8.50;;
2858;SDS011;1437;53.250;10.406;2022-11-18T01:16:52;14.40;;;9.10;;
2858;SDS011;1437;53.250;10.406;2022-11-18T01:19:20;15.50;;;8.60;;
2858;SDS011;1437;53.250;10.406;2022-11-18T01:21:50;17.40;;;8.73;;
2858;SDS011;1437;53.250;10.406;2022-11-18T01:24:17;19.00;;;10.23;;
2858;SDS011;1437;53.250;10.406;2022-11-18T01:26:45;15.60;;;8.50;;
2858;SDS011;1437;53.250;10.406;2022-11-18T01:29:13;20.63;;;8.90;;
2858;SDS011;1437;53.250;10.406;2022-11-18T01:31:42;14.33;;;8.43;;
2858;SDS011;1437;53.250;10.406;2022-11-18T01:34:10;16.27;;;8.70;;
2858;SDS011;1437;53.250;10.406;2022-11-18T01:36:40;17.10;;;7.90;;
2858;SDS011;1437;53.250;10.406;2022-11-18T01:39:08;14.30;;;8.17;;
2858;SDS011;1437;53.250;10.406;2022-11-18T01:41:35;11.53;;;7.87;;
2858;SDS011;1437;53.250;10.406;2022-11-18T01:44:04;14.30;;;7.30;;
2858;SDS011;1437;53.250;10.406;2022-11-18T01:46:32;11.43;;;7.40;;
2858;SDS011;1437;53.250;10.406;2022-11-18T01:49:03;14.83;;;9.37;;
2858;SDS011;1437;53.250;10.406;2022-11-18T01:51:32;17.30;;;9.20;;
2858;SDS011;1437;53.250;10.406;2022-11-18T01:54:11;11.93;;;7.60;;
2858;SDS011;1437;53.250;10.406;2022-11-18T01:56:41;16.43;;;9.57;;
2858;SDS011;1437;53.250;10.406;2022-11-18T01:59:10;14.10;;;9.20;;
2858;SDS011;1437;53.250;10.406;2022-11-18T02:01:38;15.47;;;7.07;;
2858;SDS011;1437;53.250;10.406;2022-11-18T02:04:07;11.57;;;7.27;;
2858;SDS011;1437;53.250;10.406;2022-11-18T02:06:36;14.27;;;8.10;;
2858;SDS011;1437;53.250;10.406;2022-11-18T02:09:04;13.13;;;9.07;;
2858;SDS011;1437;53.250;10.406;2022-11-18T02:11:32;15.63;;;9.77;;
2858;SDS011;1437;53.250;10.406;2022-11-18T02:14:19;14.73;;;9.20;;
2858;SDS011;1437;53.250;10.406;2022-11-18T02:16:54;13.87;;;7.77;;
2858;SDS011;1437;53.250;10.406;2022-11-18T02:19:44;12.37;;;8.10;;
2858;SDS011;1437;53.250;10.406;2022-11-18T02:22:21;12.60;;;8.77;;
2858;SDS011;1437;53.250;10.406;2022-11-18T02:24:58;11.53;;;7.20;;
2858;SDS011;1437;53.250;10.406;2022-11-18T02:30:15;13.77;;;8.73;;
2858;SDS011;1437;53.250;10.406;2022-11-18T02:32:43;14.80;;;8.23;;
2858;SDS011;1437;53.250;10.406;2022-11-18T02:35:15;15.77;;;9.10;;
2858;SDS011;1437;53.250;10.406;2022-11-18T02:37:47;14.40;;;8.40;;
2858;SDS011;1437;53.250;10.406;2022-11-18T02:40:18;15.10;;;8.77;;
2858;SDS011;1437;53.250;10.406;2022-11-18T02:42:49;15.40;;;8.20;;
2858;SDS011;1437;53.250;10.406;2022-11-18T02:45:23;11.97;;;6.67;;
2858;SDS011;1437;53.250;10.406;2022-11-18T02:47:52;12.43;;;6.87;;
2858;SDS011;1437;53.250;10.406;2022-11-18T02:50:23;14.80;;;8.57;;
2858;SDS011;1437;53.250;10.406;2022-11-18T02:52:53;14.23;;;7.43;;
2858;SDS011;1437;53.250;10.406;2022-11-18T02:55:22;14.87;;;7.87;;
2858;SDS011;1437;53.250;10.406;2022-11-18T02:57:51;18.07;;;10.17;;
2858;SDS011;1437;53.250;10.406;2022-11-18T03:00:20;14.80;;;8.27;;
2858;SDS011;1437;53.250;10.406;2022-11-18T03:02:49;14.80;;;9.70;;
2858;SDS011;1437;53.250;10.406;2022-11-18T03:05:18;16.33;;;9.37;;
2858;SDS011;1437;53.250;10.406;2022-11-18T03:07:50;17.73;;;8.30;;
2858;SDS011;1437;53.250;10.406;2022-11-18T03:10:22;16.60;;;10.00;;
2858;SDS011;1437;53.250;10.406;2022-11-18T03:12:51;20.33;;;11.50;;
2858;SDS011;1437;53.250;10.406;2022-11-18T03:15:22;17.80;;;10.40;;
2858;SDS011;1437;53.250;10.406;2022-11-18T03:17:54;15.93;;;8.43;;
2858;SDS011;1437;53.250;10.406;2022-11-18T03:20:24;17.80;;;10.00;;
2858;SDS011;1437;53.250;10.406;2022-11-18T03:22:53;16.10;;;9.77;;
2858;SDS011;1437;53.250;10.406;2022-11-18T03:25:22;18.40;;;9.73;;
2858;SDS011;1437;53.250;10.406;2022-11-18T03:27:56;18.10;;;8.93;;
2858;SDS011;1437;53.250;10.406;2022-11-18T03:30:27;20.47;;;11.27;;
2858;SDS011;1437;53.250;10.406;2022-11-18T03:32:59;15.97;;;8.70;;
2858;SDS011;1437;53.250;10.406;2022-11-18T03:35:28;19.63;;;10.33;;
2858;SDS011;1437;53.250;10.406;2022-11-18T03:37:58;18.20;;;9.50;;
2858;SDS011;1437;53.250;10.406;2022-11-18T03:40:29;20.20;;;10.77;;
2858;SDS011;1437;53.250;10.406;2022-11-18T03:43:00;19.53;;;11.20;;
2858;SDS011;1437;53.250;10.406;2022-11-18T03:45:30;16.40;;;9.90;;
2858;SDS011;1437;53.250;10.406;2022-11-18T03:48:01;17.57;;;11.47;;
2858;SDS011;1437;53.250;10.406;2022-11-18T03:50:31;15.50;;;9.30;;
2858;SDS011;1437;53.250;10.406;2022-11-18T03:52:59;20.47;;;10.43;;
2858;SDS011;1437;53.250;10.406;2022-11-18T03:55:28;16.70;;;8.60;;
2858;SDS011;1437;53.250;10.406;2022-11-18T03:57:58;19.03;;;10.73;;
2858;SDS011;1437;53.250;10.406;2022-11-18T04:00:28;21.20;;;11.57;;
2858;SDS011;1437;53.250;10.406;2022-11-18T04:03:02;17.60;;;10.07;;
2858;SDS011;1437;53.250;10.406;2022-11-18T04:05:35;13.50;;;9.10;;
2858;SDS011;1437;53.250;10.406;2022-11-18T04:08:05;15.53;;;10.00;;
2858;SDS011;1437;53.250;10.406;2022-11-18T04:10:35;19.13;;;11.10;;
2858;SDS011;1437;53.250;10.406;2022-11-18T04:13:04;17.43;;;10.53;;
2858;SDS011;1437;53.250;10.406;2022-11-18T04:15:35;20.37;;;11.23;;
2858;SDS011;1437;53.250;10.406;2022-11-18T04:18:05;20.60;;;11.27;;
2858;SDS011;1437;53.250;10.406;2022-11-18T04:20:36;21.33;;;12.43;;
2858;SDS011;1437;53.250;10.406;2022-11-18T04:23:06;18.87;;;11.63;;
2858;SDS011;1437;53.250;10.406;2022-11-18T04:25:34;16.27;;;9.70;;
2858;SDS011;1437;53.250;10.406;2022-11-18T04:28:02;23.77;;;11.60;;
2858;SDS011;1437;53.250;10.406;2022-11-18T04:30:29;16.40;;;10.03;;
2858;SDS011;1437;53.250;10.406;2022-11-18T04:32:57;17.93;;;11.10;;
2858;SDS011;1437;53.250;10.406;2022-11-18T04:35:26;13.60;;;9.07;;
2858;SDS011;1437;53.250;10.406;2022-11-18T04:37:57;17.73;;;10.90;;
2858;SDS011;1437;53.250;10.406;2022-11-18T04:40:24;20.10;;;11.73;;
2858;SDS011;1437;53.250;10.406;2022-11-18T04:42:52;18.37;;;12.13;;
2858;SDS011;1437;53.250;10.406;2022-11-18T04:45:20;22.47;;;11.07;;
2858;SDS011;1437;53.250;10.406;2022-11-18T04:47:48;18.93;;;11.10;;
2858;SDS011;1437;53.250;10.406;2022-11-18T04:50:15;17.53;;;9.80;;
2858;SDS011;1437;53.250;10.406;2022-11-18T04:52:45;24.03;;;12.23;;
2858;SDS011;1437;53.250;10.406;2022-11-18T04:55:13;15.23;;;9.00;;
2858;SDS011;1437;53.250;10.406;2022-11-18T04:57:40;17.00;;;11.37;;
2858;SDS011;1437;53.250;10.406;2022-11-18T05:00:08;16.50;;;10.00;;
2858;SDS011;1437;53.250;10.406;2022-11-18T05:02:36;22.17;;;11.67;;
2858;SDS011;1437;53.250;10.406;2022-11-18T05:05:04;16.10;;;9.63;;
2858;SDS011;1437;53.250;10.406;2022-11-18T05:07:32;18.00;;;10.10;;
2858;SDS011;1437;53.250;10.406;2022-11-18T05:10:01;20.27;;;11.13;;
2858;SDS011;1437;53.250;10.406;2022-11-18T05:12:29;17.20;;;11.13;;
2858;SDS011;1437;53.250;10.406;2022-11-18T05:15:14;18.37;;;11.13;;
2858;SDS011;1437;53.250;10.406;2022-11-18T05:17:41;18.83;;;11.50;;
2858;SDS011;1437;53.250;10.406;2022-11-18T05:20:09;19.60;;;11.63;;
2858;SDS011;1437;53.250;10.406;2022-11-18T05:22:37;18.43;;;11.47;;
2858;SDS011;1437;53.250;10.406;2022-11-18T05:25:07;17.37;;;11.57;;
2858;SDS011;1437;53.250;10.406;2022-11-18T05:27:37;19.47;;;12.00;;
2858;SDS011;1437;53.250;10.406;2022-11-18T05:30:05;23.10;;;12.13;;
2858;SDS011;1437;53.250;10.406;2022-11-18T05:32:33;20.30;;;12.33;;
2858;SDS011;1437;53.250;10.406;2022-11-18T05:35:01;15.47;;;9.93;;
2858;SDS011;1437;53.250;10.406;2022-11-18T05:37:30;16.40;;;10.40;;
2858;SDS011;1437;53.250;10.406;2022-11-18T05:39:58;17.10;;;11.43;;
2858;SDS011;1437;53.250;10.406;2022-11-18T05:42:27;19.00;;;9.73;;
2858;SDS011;1437;53.250;10.406;2022-11-18T05:45:12;17.40;;;10.50;;
2858;SDS011;1437;53.250;10.406;2022-11-18T05:47:40;13.20;;;8.43;;
2858;SDS011;1437;53.250;10.406;2022-11-18T05:50:21;21.80;;;12.73;;
2858;SDS011;1437;53.250;10.406;2022-11-18T05:52:49;20.97;;;9.97;;
2858;SDS011;1437;53.250;10.406;2022-11-18T05:55:16;18.57;;;10.00;;
2858;SDS011;1437;53.250;10.406;2022-11-18T05:57:49;17.33;;;10.23;;
2858;SDS011;1437;53.250;10.406;2022-11-18T06:00:17;15.40;;;9.43;;
2858;SDS011;1437;53.250;10.406;2022-11-18T06:02:45;23.77;;;12.10;;
2858;SDS011;1437;53.250;10.406;2022-11-18T06:05:14;20.73;;;11.80;;
2858;SDS011;1437;53.250;10.406;2022-11-18T06:07:42;18.60;;;11.43;;
2858;SDS011;1437;53.250;10.406;2022-11-18T06:10:15;16.73;;;9.57;;
2858;SDS011;1437;53.250;10.406;2022-11-18T06:12:44;15.27;;;9.67;;
2858;SDS011;1437;53.250;10.406;2022-11-18T06:15:16;15.27;;;9.40;;
2858;SDS011;1437;53.250;10.406;2022-11-18T06:17:45;17.53;;;10.70;;
2858;SDS011;1437;53.250;10.406;2022-11-18T06:20:16;19.50;;;10.70;;
2858;SDS011;1437;53.250;10.406;2022-11-18T06:22:47;17.33;;;11.47;;
2858;SDS011;1437;53.250;10.406;2022-11-18T06:25:16;21.70;;;11.33;;
2858;SDS011;1437;53.250;10.406;2022-11-18T06:27:43;18.10;;;10.23;;
2858;SDS011;1437;53.250;10.406;2022-11-18T06:30:14;17.10;;;9.90;;
2858;SDS011;1437;53.250;10.406;2022-11-18T06:32:42;17.40;;;11.20;;
2858;SDS011;1437;53.250;10.406;2022-11-18T06:35:10;19.27;;;11.97;;
2858;SDS011;1437;53.250;10.406;2022-11-18T06:37:38;17.17;;;9.83;;
2858;SDS011;1437;53.250;10.406;2022-11-18T06:40:09;17.57;;;10.10;;
2858;SDS011;1437;53.250;10.406;2022-11-18T06:42:37;24.20;;;11.17;;
2858;SDS011;1437;53.250;10.406;2022-11-18T06:45:24;19.73;;;13.90;;
2858;SDS011;1437;53.250;10.406;2022-11-18T06:47:55;15.60;;;9.50;;
2858;SDS011;1437;53.250;10.406;2022-11-18T06:50:24;20.50;;;12.10;;
2858;SDS011;1437;53.250;10.406;2022-11-18T06:52:52;20.40;;;10.80;;
2858;SDS011;1437;53.250;10.406;2022-11-18T06:55:21;17.90;;;10.33;;
2858;SDS011;1437;53.250;10.406;2022-11-18T06:57:50;23.33;;;9.53;;
2858;SDS011;1437;53.250;10.406;2022-11-18T07:00:20;14.13;;;9.50;;
2858;SDS011;1437;53.250;10.406;2022-11-18T07:02:53;19.57;;;10.30;;
2858;SDS011;1437;53.250;10.406;2022-11-18T07:05:23;16.67;;;12.00;;
2858;SDS011;1437;53.250;10.406;2022-11-18T07:07:58;22.27;;;11.33;;
2858;SDS011;1437;53.250;10.406;2022-11-18T07:10:29;16.10;;;9.70;;
2858;SDS011;1437;53.250;10.406;2022-11-18T07:12:57;21.80;;;11.10;;
2858;SDS011;1437;53.250;10.406;2022-11-18T07:15:25;18.73;;;10.03;;
2858;SDS011;1437;53.250;10.406;2022-11-18T07:17:57;20.33;;;10.70;;
2858;SDS011;1437;53.250;10.406;2022-11-18T07:20:27;17.20;;;11.63;;
2858;SDS011;1437;53.250;10.406;2022-11-18T07:22:56;22.63;;;12.30;;
2858;SDS011;1437;53.250;10.406;2022-11-18T07:25:24;21.03;;;10.83;;
2858;SDS011;1437;53.250;10.406;2022-11-18T07:27:51;20.63;;;12.23;;
2858;SDS011;1437;53.250;10.406;2022-11-18T07:30:19;14.93;;;11.23;;
2858;SDS011;1437;53.250;10.406;2022-11-18T07:32:47;19.27;;;10.47;;
2858;SDS011;1437;53.250;10.406;2022-11-18T07:35:18;19.23;;;11.57;;
2858;SDS011;1437;53.250;10.406;2022-11-18T07:37:48;25.40;;;13.27;;
2858;SDS011;1437;53.250;10.406;2022-11-18T07:40:16;17.53;;;11.77;;
2858;SDS011;1437;53.250;10.406;2022-11-18T07:42:44;19.80;;;12.23;;
2858;SDS011;1437;53.250;10.406;2022-11-18T07:45:15;24.20;;;12.40;;
2858;SDS011;1437;53.250;10.406;2022-11-18T07:47:58;23.30;;;14.53;;
2858;SDS011;1437;53.250;10.406;2022-11-18T07:50:29;24.97;;;13.73;;
2858;SDS011;1437;53.250;10.406;2022-11-18T07:52:58;21.90;;;13.77;;
2858;SDS011;1437;53.250;10.406;2022-11-18T07:55:30;24.10;;;14.93;;
2858;SDS011;1437;53.250;10.406;2022-11-18T07:58:02;27.23;;;13.40;;
2858;SDS011;1437;53.250;10.406;2022-11-18T08:00:34;21.77;;;11.07;;
2858;SDS011;1437;53.250;10.406;2022-11-18T08:03:06;22.03;;;13.20;;
2858;SDS011;1437;53.250;10.406;2022-11-18T08:05:38;21.50;;;13.17;;
2858;SDS011;1437;53.250;10.406;2022-11-18T08:08:08;23.23;;;13.50;;
2858;SDS011;1437;53.250;10.406;2022-11-18T08:10:40;22.00;;;13.30;;
2858;SDS011;1437;53.250;10.406;2022-11-18T08:13:10;21.47;;;12.67;;
2858;SDS011;1437;53.250;10.406;2022-11-18T08:15:47;20.17;;;13.63;;
2858;SDS011;1437;53.250;10.406;2022-11-18T08:18:18;18.27;;;12.27;;
2858;SDS011;1437;53.250;10.406;2022-11-18T08:20:54;24.07;;;13.70;;
2858;SDS011;1437;53.250;10.406;2022-11-18T08:23:26;21.83;;;12.23;;
2858;SDS011;1437;53.250;10.406;2022-11-18T08:26:01;16.77;;;9.10;;
2858;SDS011;1437;53.250;10.406;2022-11-18T08:28:34;24.40;;;14.00;;
2858;SDS011;1437;53.250;10.406;2022-11-18T08:31:08;20.70;;;12.83;;
2858;SDS011;1437;53.250;10.406;2022-11-18T08:33:45;17.30;;;10.70;;
2858;SDS011;1437;53.250;10.406;2022-11-18T08:36:23;22.57;;;13.00;;
2858;SDS011;1437;53.250;10.406;2022-11-18T08:38:59;19.30;;;12.23;;
2858;SDS011;1437;53.250;10.406;2022-11-18T08:41:53;20.20;;;11.10;;
2858;SDS011;1437;53.250;10.406;2022-11-18T08:44:44;21.30;;;11.77;;
2858;SDS011;1437;53.250;10.406;2022-11-18T08:47:26;21.77;;;12.27;;
2858;SDS011;1437;53.250;10.406;2022-11-18T08:49:54;25.90;;;12.20;;
2858;SDS011;1437;53.250;10.406;2022-11-18T08:52:23;19.13;;;11.20;;
2858;SDS011;1437;53.250;10.406;2022-11-18T08:54:51;20.30;;;11.73;;
2858;SDS011;1437;53.250;10.406;2022-11-18T08:57:24;16.40;;;11.43;;
2858;SDS011;1437;53.250;10.406;2022-11-18T08:59:54;19.33;;;11.93;;
2858;SDS011;1437;53.250;10.406;2022-11-18T09:02:22;21.60;;;12.60;;
2858;SDS011;1437;53.250;10.406;2022-11-18T09:04:53;17.57;;;10.90;;
2858;SDS011;1437;53.250;10.406;2022-11-18T09:07:30;18.67;;;11.97;;
2858;SDS011;1437;53.250;10.406;2022-11-18T09:10:03;20.53;;;12.37;;
2858;SDS011;1437;53.250;10.406;2022-11-18T09:12:31;18.43;;;12.00;;
2858;SDS011;1437;53.250;10.406;2022-11-18T09:14:59;21.00;;;12.93;;
2858;SDS011;1437;53.250;10.406;2022-11-18T09:17:27;18.67;;;10.63;;
2858;SDS011;1437;53.250;10.406;2022-11-18T09:20:03;17.30;;;10.70;;
2858;SDS011;1437;53.250;10.406;2022-11-18T09:22:33;18.43;;;12.80;;
2858;SDS011;1437;53.250;10.406;2022-11-18T09:25:02;15.43;;;10.30;;
2858;SDS011;1437;53.250;10.406;2022-11-18T09:27:31;18.57;;;10.90;;
2858;SDS011;1437;53.250;10.406;2022-11-18T09:30:00;19.23;;;11.47;;
2858;SDS011;1437;53.250;10.406;2022-11-18T09:32:28;21.87;;;11.87;;
2858;SDS011;1437;53.250;10.406;2022-11-18T09:34:55;19.17;;;10.77;;
2858;SDS011;1437;53.250;10.406;2022-11-18T09:37:23;22.73;;;12.80;;
2858;SDS011;1437;53.250;10.406;2022-11-18T09:39:57;17.40;;;11.80;;
2858;SDS011;1437;53.250;10.406;2022-11-18T09:42:34;24.10;;;12.40;;
2858;SDS011;1437;53.250;10.406;2022-11-18T09:45:17;21.13;;;10.97;;
2858;SDS011;1437;53.250;10.406;2022-11-18T09:47:54;17.97;;;10.73;;
2858;SDS011;1437;53.250;10.406;2022-11-18T09:50:26;14.33;;;9.53;;
2858;SDS011;1437;53.250;10.406;2022-11-18T09:53:00;17.53;;;11.93;;
2858;SDS011;1437;53.250;10.406;2022-11-18T09:55:35;19.27;;;11.73;;
2858;SDS011;1437;53.250;10.406;2022-11-18T09:58:05;16.57;;;9.97;;
2858;SDS011;1437;53.250;10.406;2022-11-18T10:00:34;15.60;;;10.53;;
2858;SDS011;1437;53.250;10.406;2022-11-18T10:03:10;20.60;;;11.30;;
2858;SDS011;1437;53.250;10.406;2022-11-18T10:05:47;16.50;;;10.13;;
2858;SDS011;1437;53.250;10.406;2022-11-18T10:08:20;15.63;;;9.93;;
2858;SDS011;1437;53.250;10.406;2022-11-18T10:10:53;16.10;;;12.00;;
2858;SDS011;1437;53.250;10.406;2022-11-18T10:13:29;17.20;;;10.80;;
2858;SDS011;1437;53.250;10.406;2022-11-18T10:16:08;21.20;;;12.83;;
2858;SDS011;1437;53.250;10.406;2022-11-18T10:18:50;20.70;;;11.80;;
2858;SDS011;1437;53.250;10.406;2022-11-18T10:21:21;21.10;;;12.27;;
2858;SDS011;1437;53.250;10.406;2022-11-18T10:23:52;18.47;;;11.13;;
2858;SDS011;1437;53.250;10.406;2022-11-18T10:26:40;17.40;;;11.67;;
2858;SDS011;1437;53.250;10.406;2022-11-18T10:29:15;18.67;;;11.87;;
2858;SDS011;1437;53.250;10.406;2022-11-18T10:31:53;19.33;;;10.90;;
2858;SDS011;1437;53.250;10.406;2022-11-18T10:34:23;20.97;;;9.97;;
2858;SDS011;1437;53.250;10.406;2022-11-18T10:36:57;17.57;;;11.37;;
2858;SDS011;1437;53.250;10.406;2022-11-18T10:39:28;16.60;;;11.40;;
2858;SDS011;1437;53.250;10.406;2022-11-18T10:41:59;19.10;;;10.57;;
2858;SDS011;1437;53.250;10.406;2022-11-18T10:44:32;17.63;;;10.80;;
2858;SDS011;1437;53.250;10.406;2022-11-18T10:49:58;15.37;;;10.47;;
2858;SDS011;1437;53.250;10.406;2022-11-18T10:52:32;16.90;;;10.00;;
2858;SDS011;1437;53.250;10.406;2022-11-18T10:55:24;13.53;;;8.50;;
2858;SDS011;1437;53.250;10.406;2022-11-18T10:58:09;21.20;;;10.10;;
2858;SDS011;1437;53.250;10.406;2022-11-18T11:00:42;14.77;;;8.10;;
2858;SDS011;1437;53.250;10.406;2022-11-18T11:03:24;14.67;;;8.30;;
2858;SDS011;1437;53.250;10.406;2022-11-18T11:08:49;17.10;;;9.97;;
2858;SDS011;1437;53.250;10.406;2022-11-18T11:11:27;18.17;;;10.63;;
2858;SDS011;1437;53.250;10.406;2022-11-18T11:14:10;13.60;;;8.47;;
2858;SDS011;1437;53.250;10.406;2022-11-18T11:16:49;19.40;;;9.60;;
2858;SDS011;1437;53.250;10.406;2022-11-18T11:19:19;16.33;;;8.83;;
2858;SDS011;1437;53.250;10.406;2022-11-18T11:21:52;14.57;;;10.03;;
2858;SDS011;1437;53.250;10.406;2022-11-18T11:24:23;13.40;;;9.03;;
2858;SDS011;1437;53.250;10.406;2022-11-18T11:26:56;15.93;;;9.17;;
2858;SDS011;1437;53.250;10.406;2022-11-18T11:29:33;18.67;;;10.20;;
2858;SDS011;1437;53.250;10.406;2022-11-18T11:32:07;13.60;;;9.20;;
2858;SDS011;1437;53.250;10.406;2022-11-18T11:34:39;12.00;;;8.13;;
2858;SDS011;1437;53.250;10.406;2022-11-18T11:37:12;13.33;;;8.97;;
2858;SDS011;1437;53.250;10.406;2022-11-18T11:39:47;12.83;;;7.70;;
2858;SDS011;1437;53.250;10.406;2022-11-18T11:42:26;12.70;;;7.83;;
2858;SDS011;1437;53.250;10.406;2022-11-18T11:45:06;13.60;;;8.00;;
2858;SDS011;1437;53.250;10.406;2022-11-18T11:47:41;14.07;;;8.90;;
2858;SDS011;1437;53.250;10.406;2022-11-18T11:50:17;11.80;;;8.30;;
2858;SDS011;1437;53.250;10.406;2022-11-18T11:52:49;15.80;;;7.90;;
2858;SDS011;1437;53.250;10.406;2022-11-18T11:55:23;14.40;;;9.93;;
2858;SDS011;1437;53.250;10.406;2022-11-18T11:57:59;12.90;;;7.57;;
2858;SDS011;1437;53.250;10.406;2022-11-18T12:00:30;11.40;;;7.00;;
2858;SDS011;1437;53.250;10.406;2022-11-18T12:03:02;11.07;;;8.27;;
2858;SDS011;1437;53.250;10.406;2022-11-18T12:05:34;13.37;;;8.10;;
2858;SDS011;1437;53.250;10.406;2022-11-18T12:08:05;13.27;;;7.53;;
2858;SDS011;1437;53.250;10.406;2022-11-18T12:10:37;16.73;;;7.30;;
2858;SDS011;1437;53.250;10.406;2022-11-18T12:13:16;11.47;;;6.83;;
2858;SDS011;1437;53.250;10.406;2022-11-18T12:15:54;12.83;;;8.10;;
2858;SDS011;1437;53.250;10.406;2022-11-18T12:18:25;9.10;;;6.17;;
2858;SDS011;1437;53.250;10.406;2022-11-18T12:20:53;10.63;;;7.37;;
2858;SDS011;1437;53.250;10.406;2022-11-18T12:26:04;19.30;;;8.00;;
2858;SDS011;1437;53.250;10.406;2022-11-18T12:28:36;10.30;;;6.83;;
2858;SDS011;1437;53.250;10.406;2022-11-18T12:33:53;8.27;;;6.73;;
2858;SDS011;1437;53.250;10.406;2022-11-18T12:36:24;11.63;;;7.63;;
2858;SDS011;1437;53.250;10.406;2022-11-18T12:38:52;11.70;;;8.80;;
2858;SDS011;1437;53.250;10.406;2022-11-18T12:44:27;10.13;;;6.67;;
2858;SDS011;1437;53.250;10.406;2022-11-18T12:47:01;12.27;;;7.60;;
2858;SDS011;1437;53.250;10.406;2022-11-18T12:55:10;9.90;;;6.73;;
2858;SDS011;1437;53.250;10.406;2022-11-18T12:57:41;13.80;;;5.87;;
2858;SDS011;1437;53.250;10.406;2022-11-18T13:03:25;9.07;;;6.07;;
2858;SDS011;1437;53.250;10.406;2022-11-18T13:06:04;12.00;;;7.30;;
2858;SDS011;1437;53.250;10.406;2022-11-18T13:08:36;13.03;;;7.60;;
2858;SDS011;1437;53.250;10.406;2022-11-18T13:11:18;9.37;;;6.20;;
2858;SDS011;1437;53.250;10.406;2022-11-18T13:14:04;9.10;;;5.43;;
2858;SDS011;1437;53.250;10.406;2022-11-18T13:16:52;7.03;;;5.43;;
2858;SDS011;1437;53.250;10.406;2022-11-18T13:19:53;9.60;;;5.90;;
2858;SDS011;1437;53.250;10.406;2022-11-18T13:22:34;9.20;;;5.47;;
2858;SDS011;1437;53.250;10.406;2022-11-18T13:25:46;8.07;;;5.77;;
2858;SDS011;1437;53.250;10.406;2022-11-18T13:28:24;10.53;;;6.20;;
2858;SDS011;1437;53.250;10.406;2022-11-18T13:30:57;8.10;;;5.60;;
2858;SDS011;1437;53.250;10.406;2022-11-18T13:33:30;10.20;;;5.53;;
2858;SDS011;1437;53.250;10.406;2022-11-18T13:36:03;11.93;;;6.27;;
2858;SDS011;1437;53.250;10.406;2022-11-18T13:39:00;9.27;;;5.57;;
2858;SDS011;1437;53.250;10.406;2022-11-18T13:41:31;8.53;;;5.30;;
2858;SDS011;1437;53.250;10.406;2022-11-18T13:44:14;8.70;;;5.77;;
2858;SDS011;1437;53.250;10.406;2022-11-18T13:46:44;9.03;;;5.80;;
2858;SDS011;1437;53.250;10.406;2022-11-18T13:49:17;10.17;;;5.47;;
2858;SDS011;1437;53.250;10.406;2022-11-18T13:51:45;11.87;;;6.80;;
2858;SDS011;1437;53.250;10.406;2022-11-18T13:54:19;8.40;;;5.93;;
2858;SDS011;1437;53.250;10.406;2022-11-18T13:57:03;8.93;;;6.60;;
2858;SDS011;1437;53.250;10.406;2022-11-18T13:59:40;8.60;;;6.27;;
2858;SDS011;1437;53.250;10.406;2022-11-18T14:02:15;17.83;;;8.53;;
2858;SDS011;1437;53.250;10.406;2022-11-18T14:04:51;11.90;;;6.17;;
2858;SDS011;1437;53.250;10.406;2022-11-18T14:07:31;9.23;;;6.00;;
2858;SDS011;1437;53.250;10.406;2022-11-18T14:10:09;9.57;;;6.53;;
2858;SDS011;1437;53.250;10.406;2022-11-18T14:12:45;11.33;;;6.40;;
2858;SDS011;1437;53.250;10.406;2022-11-18T14:15:36;8.87;;;6.30;;
2858;SDS011;1437;53.250;10.406;2022-11-18T14:18:17;7.57;;;5.53;;
2858;SDS011;1437;53.250;10.406;2022-11-18T14:20:54;10.10;;;6.27;;
2858;SDS011;1437;53.250;10.406;2022-11-18T14:23:32;9.93;;;6.70;;
2858;SDS011;1437;53.250;10.406;2022-11-18T14:26:11;10.67;;;6.80;;
2858;SDS011;1437;53.250;10.406;2022-11-18T14:28:53;12.50;;;7.50;;
2858;SDS011;1437;53.250;10.406;2022-11-18T14:31:27;11.13;;;6.77;;
2858;SDS011;1437;53.250;10.406;2022-11-18T14:36:48;9.97;;;5.63;;
2858;SDS011;1437;53.250;10.406;2022-11-18T14:39:20;9.50;;;6.50;;
2858;SDS011;1437;53.250;10.406;2022-11-18T14:41:52;12.57;;;6.37;;
2858;SDS011;1437;53.250;10.406;2022-11-18T14:44:37;8.80;;;5.50;;
2858;SDS011;1437;53.250;10.406;2022-11-18T14:47:10;16.33;;;9.00;;
2858;SDS011;1437;53.250;10.406;2022-11-18T14:49:40;13.73;;;7.77;;
2858;SDS011;1437;53.250;10.406;2022-11-18T14:52:13;10.00;;;6.20;;
2858;SDS011;1437;53.250;10.406;2022-11-18T14:54:50;8.83;;;6.07;;
2858;SDS011;1437;53.250;10.406;2022-11-18T14:57:18;13.97;;;7.83;;
2858;SDS011;1437;53.250;10.406;2022-11-18T14:59:54;11.70;;;6.03;;
2858;SDS011;1437;53.250;10.406;2022-11-18T15:02:24;12.53;;;5.97;;
2858;SDS011;1437;53.250;10.406;2022-11-18T15:04:55;8.43;;;5.67;;
2858;SDS011;1437;53.250;10.406;2022-11-18T15:07:28;10.33;;;6.10;;
2858;SDS011;1437;53.250;10.406;2022-11-18T15:10:02;9.10;;;7.00;;
2858;SDS011;1437;53.250;10.406;2022-11-18T15:12:41;9.57;;;5.90;;
2858;SDS011;1437;53.250;10.406;2022-11-18T15:15:19;9.93;;;6.80;;
2858;SDS011;1437;53.250;10.406;2022-11-18T15:18:36;11.90;;;6.50;;
2858;SDS011;1437;53.250;10.406;2022-11-18T15:21:18;10.47;;;6.10;;
2858;SDS011;1437;53.250;10.406;2022-11-18T15:23:49;9.07;;;6.20;;
2858;SDS011;1437;53.250;10.406;2022-11-18T15:26:17;8.73;;;6.30;;
2858;SDS011;1437;53.250;10.406;2022-11-18T15:28:48;9.93;;;6.53;;
2858;SDS011;1437;53.250;10.406;2022-11-18T15:31:24;9.33;;;5.77;;
2858;SDS011;1437;53.250;10.406;2022-11-18T15:33:54;8.57;;;6.10;;
2858;SDS011;1437;53.250;10.406;2022-11-18T15:36:22;8.63;;;6.30;;
2858;SDS011;1437;53.250;10.406;2022-11-18T15:39:01;10.20;;;5.73;;
2858;SDS011;1437;53.250;10.406;2022-11-18T15:41:34;11.30;;;6.20;;
2858;SDS011;1437;53.250;10.406;2022-11-18T15:44:03;11.80;;;7.33;;